Cottonwood, Idaho
Current Conditions -  °F | °C
As of 11:35 PM on Wednesday 22 Oct 2014 (Local Time) from KGIC Reporting Station
Overcast Overcast  
Wind Chill: 57°   Ceiling: 7000
Heat Index: 57°   Visibility: 10mi
Dew Point: 35°   Wind: 21mph
Humidity: 43%   Direction: 220°SW
Pressure: 29.93"   Gusts: 33mph
Location:  46.05°N, 116.35°W
Report Text: KGIC 230635Z AUTO 22018G29KT 10SM SCT043 BKN070 OVC100 14/02 A2993 RMK AO1 T01380015
Loading
Personal Weather Stations






























Interactive Weather Map New forecast layout! Learn more

10-Day Weather Forecast

Advertisements
Track Severe Weather on mobile